Pagina principale
METAR-TAF:

METAR-TAF

Aeroporti :

Aeroporto di Bologna-Borgo Panigale

Bologna, Italia

latitudine: 44-32N, longitudine: 011-18E, altezza: 36 m

Osservazione

Il bollettino è stato emesso 21 minuti fa, alle 13:50 UTC
Vento 6 kt da ovest/sud-ovest, variando fra sud/sud-ovest e ovest
Temperature 23°C
Umidità 41%
Pressione 998 hPa
Visibilità 10 km o più
Nubi sparse ad un'altezza di 7000 ft

METAR: LIPE 271350Z 24006KT 200V260 9999 SCT070 23/09 Q0998

Ora: 16:11 (14:11 UTC)

Previsione

Il bollettino è stato emesso 3 ore e 11 minuti fa, alle 11:00 UTC
Previsione valida dal 27 alle 12 UTC al 28 alle 12 UTC
Vento 8 kt da ovest/nord-ovest
Visibilità 10 km o più
Poco nuvoloso ad un'altezza di 3000 ft
Temporaneamente
dal 27 alle 12 UTC al 27 alle 16 UTC
pioggia

TAF: LIPE 271100Z 2712/2812 30008KT 9999 FEW030 TEMPO 2712/2716 RA

Osservazioni e previsioni meteorologiche di più di 4000 aeroporti (messaggi METAR e TAF).

Le stazioni disponibili sono rappresentate dai dischi gialli e rossi sulla carta.

Puntare il mouse per vedere il nome della stazione.

Clicca sopra per visualizzare le osservazioni e previsioni meteorologiche.

Per cambiare la mappa : fare clic sui pulsanti verdi con una croce nera per ingrandire, il pulsante verde con un trattino per diminuire, o sulla freccia verde per le mappe adiacenti.


METAR-TAF: